createdAt,value
2022-12-09T00:02:22.601Z,48.40
2022-12-09T00:04:49.756Z,48.70
2022-12-09T00:07:16.572Z,48.30
2022-12-09T00:09:43.489Z,48.20
2022-12-09T00:12:10.104Z,48.30
2022-12-09T00:14:36.891Z,48.40
2022-12-09T00:17:03.944Z,48.20
2022-12-09T00:19:30.919Z,48.80
2022-12-09T00:21:57.489Z,48.20
2022-12-09T00:24:24.072Z,48.30
2022-12-09T00:26:50.664Z,48.10
2022-12-09T00:29:17.226Z,48.00
2022-12-09T00:31:43.798Z,48.20
2022-12-09T00:34:11.660Z,48.20
2022-12-09T00:36:38.436Z,48.20
2022-12-09T00:39:05.353Z,48.20
2022-12-09T00:41:32.251Z,48.10
2022-12-09T00:43:59.406Z,48.00
2022-12-09T00:46:26.095Z,48.10
2022-12-09T00:48:52.800Z,48.00
2022-12-09T00:51:20.395Z,48.00
2022-12-09T00:53:47.691Z,48.10
2022-12-09T00:56:14.667Z,48.10
2022-12-09T00:58:41.265Z,48.00
2022-12-09T01:01:08.032Z,48.00
2022-12-09T01:03:35.184Z,48.00
2022-12-09T01:06:06.912Z,48.00
2022-12-09T01:08:36.229Z,48.00
2022-12-09T01:11:09.939Z,47.90
2022-12-09T01:13:36.493Z,47.80
2022-12-09T01:16:03.440Z,47.70
2022-12-09T01:18:30.123Z,47.90
2022-12-09T01:20:57.745Z,48.00
2022-12-09T01:23:24.480Z,48.00
2022-12-09T01:25:51.180Z,48.40
2022-12-09T01:28:17.757Z,48.10
2022-12-09T01:30:44.960Z,47.80
2022-12-09T01:33:11.661Z,48.20
2022-12-09T01:35:42.091Z,47.80
2022-12-09T01:38:09.481Z,47.70
2022-12-09T01:40:36.362Z,47.80
2022-12-09T01:43:02.972Z,47.90
2022-12-09T01:45:32.786Z,47.90
2022-12-09T01:48:11.543Z,47.80
2022-12-09T01:50:39.499Z,47.80
2022-12-09T01:53:06.971Z,47.80
2022-12-09T01:55:34.108Z,47.70
2022-12-09T01:58:00.875Z,47.80
2022-12-09T02:00:27.498Z,47.80
2022-12-09T02:02:55.831Z,47.80
2022-12-09T02:05:24.400Z,47.90
2022-12-09T02:07:52.173Z,47.80
2022-12-09T02:10:19.485Z,48.00
2022-12-09T02:13:05.150Z,47.90
2022-12-09T02:16:01.709Z,47.80
2022-12-09T02:18:43.909Z,47.80
2022-12-09T02:21:33.506Z,48.00
2022-12-09T02:24:09.622Z,47.70
2022-12-09T02:26:36.294Z,47.90
2022-12-09T02:29:15.056Z,47.80
2022-12-09T02:32:02.763Z,47.90
2022-12-09T02:34:31.818Z,48.00
2022-12-09T02:37:06.829Z,47.80
2022-12-09T02:39:39.982Z,47.80
2022-12-09T02:42:08.352Z,47.80
2022-12-09T02:44:37.349Z,47.90
2022-12-09T02:47:06.685Z,47.90
2022-12-09T02:49:34.390Z,47.80
2022-12-09T02:52:02.339Z,47.90
2022-12-09T02:54:30.619Z,47.90
2022-12-09T02:57:00.835Z,47.90
2022-12-09T02:59:27.806Z,47.80
2022-12-09T03:02:06.374Z,47.90
2022-12-09T03:04:33.243Z,47.80
2022-12-09T03:07:29.209Z,48.00
2022-12-09T03:09:59.993Z,48.10
2022-12-09T03:12:28.695Z,47.90
2022-12-09T03:14:55.701Z,48.40
2022-12-09T03:17:27.357Z,48.00
2022-12-09T03:19:56.032Z,48.00
2022-12-09T03:22:27.992Z,47.80
2022-12-09T03:25:10.396Z,48.00
2022-12-09T03:27:38.953Z,47.90
2022-12-09T03:30:06.666Z,47.90
2022-12-09T03:32:35.110Z,47.80
2022-12-09T03:35:04.851Z,48.00
2022-12-09T03:37:32.245Z,47.50
2022-12-09T03:39:59.695Z,47.70
2022-12-09T03:42:28.386Z,47.40
2022-12-09T03:44:57.333Z,47.90
2022-12-09T03:47:24.435Z,48.20
2022-12-09T03:49:51.299Z,47.70
2022-12-09T03:52:30.281Z,47.50
2022-12-09T03:55:04.391Z,47.50
2022-12-09T03:57:32.441Z,47.40
2022-12-09T04:00:00.884Z,47.60
2022-12-09T04:02:28.255Z,48.00
2022-12-09T04:04:55.122Z,47.60
2022-12-09T04:07:22.133Z,47.60
2022-12-09T04:09:49.035Z,48.10
2022-12-09T04:12:15.788Z,47.70
2022-12-09T04:14:42.605Z,47.30
2022-12-09T04:17:09.920Z,48.20
2022-12-09T04:19:36.998Z,47.80
2022-12-09T04:22:04.275Z,47.70
2022-12-09T04:24:31.140Z,47.50
2022-12-09T04:26:58.067Z,48.10
2022-12-09T04:29:24.682Z,47.30
2022-12-09T04:31:51.304Z,47.30
2022-12-09T04:34:18.098Z,47.00
2022-12-09T04:36:44.998Z,47.20
2022-12-09T04:39:11.951Z,46.90
2022-12-09T04:41:38.899Z,47.30
2022-12-09T04:44:05.862Z,47.10
2022-12-09T04:46:33.181Z,47.00
2022-12-09T04:49:00.054Z,47.10
2022-12-09T04:51:26.973Z,47.10
2022-12-09T04:53:53.861Z,46.70
2022-12-09T04:56:21.471Z,46.70
2022-12-09T04:58:49.391Z,46.20
2022-12-09T05:01:18.291Z,46.40
2022-12-09T05:03:50.202Z,47.60
2022-12-09T05:06:17.645Z,46.90
2022-12-09T05:08:44.653Z,46.40
2022-12-09T05:11:11.484Z,46.40
2022-12-09T05:13:38.233Z,46.90
2022-12-09T05:16:15.694Z,46.50
2022-12-09T05:18:44.095Z,46.40
2022-12-09T05:21:13.742Z,46.40
2022-12-09T05:23:41.269Z,46.40
2022-12-09T05:26:11.335Z,46.30
2022-12-09T05:28:38.303Z,46.40
2022-12-09T05:31:06.458Z,46.10
2022-12-09T05:33:33.502Z,46.40
2022-12-09T05:36:00.248Z,46.10
2022-12-09T05:38:27.003Z,46.00
2022-12-09T05:40:54.199Z,46.50
2022-12-09T05:43:21.104Z,46.20
2022-12-09T05:45:47.900Z,46.60
2022-12-09T05:48:14.913Z,46.20
2022-12-09T05:50:41.742Z,46.30
2022-12-09T05:53:08.489Z,46.00
2022-12-09T05:55:35.324Z,47.20
2022-12-09T05:58:02.775Z,46.00
2022-12-09T06:00:29.761Z,46.10
2022-12-09T06:02:56.810Z,46.60
2022-12-09T06:05:24.499Z,46.10
2022-12-09T06:07:51.419Z,46.00
2022-12-09T06:10:18.881Z,46.20
2022-12-09T06:12:46.019Z,45.60
2022-12-09T06:15:18.754Z,46.30
2022-12-09T06:17:48.237Z,46.20
2022-12-09T06:20:15.699Z,46.60
2022-12-09T06:22:42.591Z,45.90
2022-12-09T06:25:09.856Z,45.90
2022-12-09T06:27:37.294Z,45.70
2022-12-09T06:30:04.615Z,45.60
2022-12-09T06:32:43.122Z,46.00
2022-12-09T06:35:10.395Z,45.60
2022-12-09T06:37:37.938Z,46.00
2022-12-09T06:40:05.387Z,45.70
2022-12-09T06:42:32.565Z,45.80
2022-12-09T06:44:59.438Z,45.50
2022-12-09T06:47:26.500Z,45.90
2022-12-09T06:49:53.397Z,45.80
2022-12-09T06:52:22.212Z,45.50
2022-12-09T06:54:49.388Z,45.50
2022-12-09T06:57:16.593Z,45.70
2022-12-09T06:59:43.499Z,45.80
2022-12-09T07:02:11.731Z,45.50
2022-12-09T07:04:42.665Z,45.50
2022-12-09T07:07:11.236Z,45.30
2022-12-09T07:09:39.183Z,45.50
2022-12-09T07:12:06.749Z,45.70
2022-12-09T07:14:33.382Z,45.30
2022-12-09T07:17:00.895Z,45.40
2022-12-09T07:19:28.340Z,45.40
2022-12-09T07:21:55.269Z,45.30
2022-12-09T07:24:22.127Z,45.50
2022-12-09T07:26:49.397Z,45.50
2022-12-09T07:29:16.553Z,45.80
2022-12-09T07:31:43.763Z,45.30
2022-12-09T07:34:11.077Z,45.90
2022-12-09T07:36:38.241Z,46.00
2022-12-09T07:39:06.397Z,45.70
2022-12-09T07:41:33.876Z,45.90
2022-12-09T07:44:01.281Z,45.50
2022-12-09T07:46:28.666Z,45.30
2022-12-09T07:48:57.375Z,45.50
2022-12-09T07:51:25.256Z,45.50
2022-12-09T07:53:52.526Z,45.70
2022-12-09T07:56:20.178Z,45.40
2022-12-09T07:58:54.659Z,45.40
2022-12-09T08:01:23.689Z,45.10
2022-12-09T08:03:50.756Z,45.40
2022-12-09T08:06:19.583Z,45.50
2022-12-09T08:08:47.570Z,45.50
2022-12-09T08:11:18.120Z,45.20
2022-12-09T08:13:45.166Z,45.10
2022-12-09T08:16:12.593Z,45.20
2022-12-09T08:18:43.415Z,45.00
2022-12-09T08:21:12.650Z,45.30
2022-12-09T08:23:40.320Z,45.10
2022-12-09T08:26:07.553Z,45.40
2022-12-09T08:28:34.984Z,45.70
2022-12-09T08:31:10.269Z,45.50
2022-12-09T08:33:37.501Z,45.30
2022-12-09T08:36:05.213Z,45.50
2022-12-09T08:38:32.185Z,45.40
2022-12-09T08:41:00.620Z,45.00
2022-12-09T08:43:27.680Z,45.50
2022-12-09T08:45:54.642Z,45.50
2022-12-09T08:48:21.429Z,45.30
2022-12-09T08:50:48.618Z,45.50
2022-12-09T08:53:15.337Z,45.30
2022-12-09T08:55:42.892Z,45.20
2022-12-09T08:58:12.863Z,45.20
2022-12-09T09:00:39.778Z,45.40
2022-12-09T09:03:06.808Z,45.50
2022-12-09T09:05:34.063Z,45.40
2022-12-09T09:08:00.977Z,45.10
2022-12-09T09:10:29.708Z,45.20
2022-12-09T09:12:56.846Z,45.70
2022-12-09T09:15:23.878Z,45.50
2022-12-09T09:17:52.459Z,45.90
2022-12-09T09:20:20.052Z,46.50
2022-12-09T09:22:47.056Z,46.30
2022-12-09T09:25:15.004Z,45.60
2022-12-09T09:27:42.134Z,45.40
2022-12-09T09:30:09.756Z,45.60
2022-12-09T09:32:37.180Z,45.10
2022-12-09T09:35:04.329Z,45.40
2022-12-09T09:37:31.640Z,45.10
2022-12-09T09:39:58.363Z,45.50
2022-12-09T09:42:30.892Z,45.40
2022-12-09T09:44:57.766Z,45.40
2022-12-09T09:47:37.801Z,45.30
2022-12-09T09:50:24.517Z,45.20
2022-12-09T09:52:53.233Z,45.40
2022-12-09T09:55:31.709Z,45.40
2022-12-09T09:57:58.370Z,45.30
2022-12-09T10:00:30.930Z,45.50
2022-12-09T10:03:02.788Z,45.70
2022-12-09T10:05:32.666Z,46.40
2022-12-09T10:08:03.004Z,46.00
2022-12-09T10:10:46.613Z,45.80
2022-12-09T10:13:20.881Z,46.10
2022-12-09T10:15:51.034Z,45.40
2022-12-09T10:18:20.923Z,45.40
2022-12-09T10:20:48.052Z,45.70
2022-12-09T10:23:16.450Z,45.60
2022-12-09T10:25:57.502Z,46.00
2022-12-09T10:28:26.951Z,46.00
2022-12-09T10:30:55.470Z,45.60
2022-12-09T10:33:26.609Z,46.10
2022-12-09T10:35:53.501Z,46.40
2022-12-09T10:38:20.928Z,45.90
2022-12-09T10:40:49.024Z,46.10
2022-12-09T10:43:35.212Z,45.90
2022-12-09T10:46:31.752Z,45.50
2022-12-09T10:49:04.016Z,45.50
2022-12-09T10:51:32.024Z,46.30
2022-12-09T10:54:00.935Z,45.70
2022-12-09T10:56:28.314Z,46.20
2022-12-09T10:59:13.656Z,45.70
2022-12-09T11:01:51.608Z,45.80
2022-12-09T11:04:26.860Z,45.70
2022-12-09T11:06:59.463Z,46.10
2022-12-09T11:09:28.913Z,45.80
2022-12-09T11:11:57.711Z,45.60
2022-12-09T11:14:27.226Z,45.70
2022-12-09T11:16:58.115Z,46.40
2022-12-09T11:19:29.327Z,45.60
2022-12-09T11:22:12.970Z,46.10
2022-12-09T11:24:40.820Z,45.40
2022-12-09T11:27:28.313Z,45.30
2022-12-09T11:30:12.468Z,45.40
2022-12-09T11:32:52.273Z,45.60
2022-12-09T11:35:21.420Z,45.30
2022-12-09T11:37:48.124Z,45.60
2022-12-09T11:40:19.955Z,45.50
2022-12-09T11:42:50.582Z,45.50
2022-12-09T11:45:19.163Z,45.50
2022-12-09T11:50:34.508Z,45.80
2022-12-09T11:53:13.461Z,45.40
2022-12-09T11:55:48.125Z,45.40
2022-12-09T11:58:21.210Z,45.70
2022-12-09T12:00:57.012Z,45.30
2022-12-09T12:03:23.590Z,45.50
2022-12-09T12:05:51.340Z,45.20
2022-12-09T12:08:38.280Z,45.70
2022-12-09T12:11:14.843Z,45.70
2022-12-09T12:13:41.956Z,45.50
2022-12-09T12:16:26.877Z,45.40
2022-12-09T12:18:56.054Z,45.30
2022-12-09T12:21:58.319Z,45.40
2022-12-09T12:24:32.319Z,45.40
2022-12-09T12:27:03.890Z,45.30
2022-12-09T12:29:30.437Z,45.20
2022-12-09T12:32:20.536Z,45.20
2022-12-09T12:35:22.448Z,45.30
2022-12-09T12:38:07.796Z,45.10
2022-12-09T12:40:52.719Z,45.50
2022-12-09T12:43:46.103Z,45.60
2022-12-09T12:46:28.007Z,45.50
2022-12-09T12:48:54.621Z,45.30
2022-12-09T12:51:30.104Z,45.20
2022-12-09T12:54:16.026Z,45.40
2022-12-09T12:56:45.674Z,45.10
2022-12-09T12:59:24.556Z,45.30
2022-12-09T13:01:57.424Z,45.30
2022-12-09T13:04:26.501Z,45.50
2022-12-09T13:07:01.914Z,45.50
2022-12-09T13:09:37.040Z,45.30
2022-12-09T13:12:15.377Z,46.40
2022-12-09T13:14:52.516Z,45.40
2022-12-09T13:17:20.633Z,45.70
2022-12-09T13:19:55.500Z,45.60
2022-12-09T13:22:27.569Z,45.90
2022-12-09T13:25:11.117Z,45.70
2022-12-09T13:27:51.172Z,45.80
2022-12-09T13:30:20.077Z,45.60
2022-12-09T13:32:52.348Z,45.70
2022-12-09T13:35:18.937Z,45.90
2022-12-09T13:37:45.459Z,45.50
2022-12-09T13:40:21.234Z,45.60
2022-12-09T13:42:56.159Z,45.50
2022-12-09T13:45:28.309Z,45.50
2022-12-09T13:47:55.600Z,45.30
2022-12-09T13:50:22.138Z,45.50
2022-12-09T13:52:52.975Z,46.10
2022-12-09T13:55:31.786Z,45.50
2022-12-09T13:58:13.667Z,45.40
2022-12-09T14:00:42.320Z,46.30
2022-12-09T14:03:23.098Z,46.00
2022-12-09T14:05:51.161Z,46.40
2022-12-09T14:08:24.707Z,46.00
2022-12-09T14:10:52.997Z,45.80
2022-12-09T14:13:22.413Z,45.00
2022-12-09T14:16:09.077Z,45.00
2022-12-09T14:18:36.111Z,44.90
2022-12-09T14:21:17.770Z,45.50
2022-12-09T14:24:17.685Z,44.90
2022-12-09T14:26:45.471Z,45.30
2022-12-09T14:29:31.980Z,45.10
2022-12-09T14:32:01.728Z,45.20
2022-12-09T14:34:28.506Z,45.20
2022-12-09T14:37:10.728Z,45.20
2022-12-09T14:39:43.709Z,45.90
2022-12-09T14:42:33.666Z,45.80
2022-12-09T14:45:08.838Z,46.60
2022-12-09T14:47:39.535Z,46.80
2022-12-09T14:50:13.653Z,46.60
2022-12-09T14:52:49.496Z,46.80
2022-12-09T14:55:16.505Z,47.00
2022-12-09T14:57:46.994Z,45.60
2022-12-09T15:00:32.597Z,45.60
2022-12-09T15:03:31.322Z,45.70
2022-12-09T15:05:55.885Z,45.40
2022-12-09T15:08:29.933Z,52.30
2022-12-09T15:10:56.670Z,51.90
2022-12-09T15:13:24.809Z,50.60
2022-12-09T15:15:51.511Z,50.20
2022-12-09T15:18:20.080Z,49.80
2022-12-09T15:20:54.599Z,50.30
2022-12-09T15:23:24.305Z,50.00
2022-12-09T15:25:55.771Z,49.80
2022-12-09T15:28:26.664Z,50.60
2022-12-09T15:30:58.215Z,49.90
2022-12-09T15:33:24.972Z,49.90
2022-12-09T15:36:09.150Z,50.50
2022-12-09T15:38:40.846Z,49.90
2022-12-09T15:41:27.514Z,49.80
2022-12-09T15:43:55.427Z,51.20
2022-12-09T15:46:22.825Z,50.30
2022-12-09T15:48:53.093Z,50.20
2022-12-09T15:51:21.240Z,51.10
2022-12-09T15:53:56.765Z,51.00
2022-12-09T15:56:30.272Z,50.60
2022-12-09T15:58:58.665Z,50.60
2022-12-09T16:01:30.352Z,50.80
2022-12-09T16:03:58.382Z,50.90
2022-12-09T16:06:27.208Z,51.70
2022-12-09T16:08:54.169Z,51.00
2022-12-09T16:11:39.582Z,51.20
2022-12-09T16:14:06.686Z,52.10
2022-12-09T16:17:05.732Z,51.80
2022-12-09T16:19:36.057Z,51.20
2022-12-09T16:22:02.676Z,52.00
2022-12-09T16:24:50.686Z,51.10
2022-12-09T16:27:18.743Z,51.70
2022-12-09T16:29:50.886Z,51.60
2022-12-09T16:32:19.509Z,50.90
2022-12-09T16:34:46.808Z,51.00
2022-12-09T16:37:22.733Z,51.80
2022-12-09T16:39:49.316Z,51.30
2022-12-09T16:42:21.027Z,51.30
2022-12-09T16:44:47.913Z,51.90
2022-12-09T16:47:16.424Z,51.10
2022-12-09T16:49:48.934Z,51.40
2022-12-09T16:52:20.463Z,51.20
2022-12-09T16:54:48.010Z,51.10
2022-12-09T16:57:15.292Z,51.40
2022-12-09T16:59:42.760Z,51.90
2022-12-09T17:02:26.603Z,52.60
2022-12-09T17:04:53.292Z,51.20
2022-12-09T17:07:20.395Z,51.10
2022-12-09T17:09:48.217Z,50.40
2022-12-09T17:12:14.959Z,50.80
2022-12-09T17:14:41.763Z,51.00
2022-12-09T17:17:08.455Z,51.30
2022-12-09T17:19:35.312Z,51.60
2022-12-09T17:22:02.760Z,51.30
2022-12-09T17:24:29.314Z,52.10
2022-12-09T17:26:55.894Z,51.30
2022-12-09T17:29:22.428Z,51.60
2022-12-09T17:31:51.672Z,51.80
2022-12-09T17:34:19.079Z,51.60
2022-12-09T17:36:45.710Z,52.00
2022-12-09T17:39:16.125Z,52.60
2022-12-09T17:41:43.282Z,51.70
2022-12-09T17:44:09.856Z,51.50
2022-12-09T17:46:37.117Z,52.40
2022-12-09T17:49:04.008Z,51.60
2022-12-09T17:51:35.577Z,51.80
2022-12-09T17:54:03.715Z,51.60
2022-12-09T17:56:30.389Z,51.30
2022-12-09T17:59:01.456Z,52.10
2022-12-09T18:01:28.396Z,52.50
2022-12-09T18:04:02.952Z,52.00
2022-12-09T18:06:34.312Z,52.50
2022-12-09T18:09:01.812Z,51.70
2022-12-09T18:11:28.463Z,52.10
2022-12-09T18:13:55.556Z,52.30
2022-12-09T18:16:22.707Z,52.50
2022-12-09T18:18:49.456Z,52.00
2022-12-09T18:21:16.773Z,52.10
2022-12-09T18:23:43.592Z,52.30
2022-12-09T18:26:11.396Z,52.10
2022-12-09T18:28:38.148Z,51.80
2022-12-09T18:31:05.507Z,52.10
2022-12-09T18:33:32.146Z,52.10
2022-12-09T18:35:58.758Z,52.00
2022-12-09T18:38:25.320Z,52.00
2022-12-09T18:41:09.930Z,52.30
2022-12-09T18:43:38.112Z,52.00
2022-12-09T18:46:06.354Z,52.00
2022-12-09T18:48:33.357Z,51.50
2022-12-09T18:51:00.195Z,52.30
2022-12-09T18:53:27.060Z,51.60
2022-12-09T18:55:53.840Z,52.40
2022-12-09T18:58:36.552Z,52.10
2022-12-09T19:01:14.651Z,51.80
2022-12-09T19:03:41.291Z,52.50
2022-12-09T19:06:16.926Z,52.10
2022-12-09T19:08:43.957Z,52.10
2022-12-09T19:11:11.118Z,52.20
2022-12-09T19:13:38.071Z,51.90
2022-12-09T19:16:05.167Z,52.10
2022-12-09T19:18:31.803Z,51.60
2022-12-09T19:21:06.591Z,52.00
2022-12-09T19:23:37.196Z,51.70
2022-12-09T19:26:04.115Z,52.30
2022-12-09T19:28:30.779Z,52.30
2022-12-09T19:30:57.459Z,51.80
2022-12-09T19:33:24.077Z,51.70
2022-12-09T19:35:50.692Z,51.70
2022-12-09T19:38:17.594Z,52.30
2022-12-09T19:40:44.262Z,52.10
2022-12-09T19:43:11.312Z,51.80
2022-12-09T19:45:38.064Z,52.60
2022-12-09T19:48:04.684Z,51.90
2022-12-09T19:50:31.590Z,51.60
2022-12-09T19:52:58.315Z,52.70
2022-12-09T19:55:24.887Z,51.30
2022-12-09T19:57:51.449Z,51.40
2022-12-09T20:00:18.258Z,52.50
2022-12-09T20:02:44.939Z,51.70
2022-12-09T20:05:12.169Z,51.90
2022-12-09T20:07:38.813Z,52.00
2022-12-09T20:10:06.494Z,51.50
2022-12-09T20:12:35.078Z,51.90
2022-12-09T20:15:02.517Z,52.70
2022-12-09T20:17:29.111Z,51.60
2022-12-09T20:19:56.100Z,52.40
2022-12-09T20:22:22.655Z,52.00
2022-12-09T20:24:49.510Z,52.20
2022-12-09T20:27:16.343Z,51.90
2022-12-09T20:29:42.924Z,52.50
2022-12-09T20:32:10.236Z,52.10
2022-12-09T20:34:37.084Z,52.60
2022-12-09T20:37:04.267Z,51.10
2022-12-09T20:39:30.898Z,52.30
2022-12-09T20:41:57.620Z,52.20
2022-12-09T20:44:24.293Z,52.50
2022-12-09T20:46:51.967Z,52.30
2022-12-09T20:49:21.907Z,52.90
2022-12-09T20:51:49.133Z,51.80
2022-12-09T20:54:15.844Z,51.20
2022-12-09T20:56:42.535Z,50.70
2022-12-09T20:59:34.097Z,51.10
2022-12-09T21:02:00.684Z,50.80
2022-12-09T21:04:27.281Z,51.20
2022-12-09T21:06:53.871Z,52.30
2022-12-09T21:09:22.203Z,52.80
2022-12-09T21:11:49.968Z,51.30
2022-12-09T21:14:18.572Z,51.30
2022-12-09T21:16:50.240Z,51.40
2022-12-09T21:19:20.296Z,52.20
2022-12-09T21:21:47.043Z,52.00
2022-12-09T21:24:14.547Z,52.20
2022-12-09T21:26:41.196Z,51.30
2022-12-09T21:29:08.400Z,51.30
2022-12-09T21:31:35.970Z,51.70
2022-12-09T21:34:04.853Z,51.60
2022-12-09T21:36:32.588Z,52.40
2022-12-09T21:38:59.567Z,51.50
2022-12-09T21:41:27.920Z,51.60
2022-12-09T21:43:58.042Z,51.70
2022-12-09T21:46:26.223Z,51.70
2022-12-09T21:48:58.466Z,51.80
2022-12-09T21:51:28.364Z,52.50
2022-12-09T21:53:55.217Z,51.80
2022-12-09T21:56:26.081Z,52.00
2022-12-09T21:58:54.568Z,51.50
2022-12-09T22:01:22.763Z,51.40
2022-12-09T22:03:49.728Z,51.90
2022-12-09T22:06:16.879Z,52.10
2022-12-09T22:08:43.689Z,51.30
2022-12-09T22:11:11.562Z,51.90
2022-12-09T22:13:39.670Z,51.50
2022-12-09T22:16:07.611Z,51.40
2022-12-09T22:18:34.679Z,52.30
2022-12-09T22:21:24.546Z,51.80
2022-12-09T22:23:56.159Z,51.50
2022-12-09T22:26:23.350Z,51.30
2022-12-09T22:28:50.292Z,51.70
2022-12-09T22:31:18.308Z,51.70
2022-12-09T22:33:45.021Z,51.90
2022-12-09T22:36:12.272Z,51.50
2022-12-09T22:38:40.709Z,51.90
2022-12-09T22:41:08.855Z,51.50
2022-12-09T22:43:38.187Z,51.30
2022-12-09T22:46:09.775Z,51.70
2022-12-09T22:48:36.761Z,51.70
2022-12-09T22:51:08.316Z,51.60
2022-12-09T22:53:35.043Z,51.40
2022-12-09T22:56:01.857Z,51.50
2022-12-09T22:58:28.547Z,51.90
2022-12-09T23:00:55.393Z,51.70
2022-12-09T23:03:22.507Z,52.30
2022-12-09T23:05:50.964Z,51.40
2022-12-09T23:08:17.893Z,51.30
2022-12-09T23:10:44.543Z,51.90
2022-12-09T23:13:11.112Z,51.80
2022-12-09T23:15:37.721Z,51.70
2022-12-09T23:18:04.297Z,50.80
2022-12-09T23:20:30.920Z,51.10
2022-12-09T23:22:57.515Z,51.60
2022-12-09T23:25:24.120Z,51.10
2022-12-09T23:27:50.652Z,51.30
2022-12-09T23:30:17.203Z,51.20
2022-12-09T23:32:43.775Z,51.00
2022-12-09T23:35:10.432Z,51.20
2022-12-09T23:37:36.964Z,50.80
2022-12-09T23:40:05.258Z,51.40
2022-12-09T23:42:31.903Z,51.30
2022-12-09T23:44:58.474Z,51.30
2022-12-09T23:47:25.058Z,50.70
2022-12-09T23:49:51.621Z,51.30
2022-12-09T23:52:18.264Z,51.40
2022-12-09T23:54:44.841Z,51.40
2022-12-09T23:57:11.395Z,51.50
2022-12-09T23:59:37.965Z,51.20
